| time (UTC) | temp F | wind direction | speed knots | gust knots | rain 1hr in | rain 24hr in | rain mn in | humidity % | barometer mb |
| 20260506004718 | 62 | 138 | 1.7 | 10.4 | 0.00 | 0.00 | 0.00 | 48 | 1002.2 |
| 20260506003712 | 62 | 188 | 2.6 | 10.4 | 0.00 | 0.00 | 0.00 | 47 | 1002.7 |
| 20260506002733 | 62 | 293 | 1.7 | 7.8 | 0.00 | 0.00 | 0.00 | 46 | 1002.4 |
| 20260506001723 | 62 | 161 | 0.0 | 3.5 | 0.00 | 0.00 | 0.00 | 46 | 1002.6 |
| 20260506000726 | 62 | 200 | 0.0 | 1.7 | 0.00 | 0.00 | 0.00 | 46 | 1002.3 |
| 20260505235703 | 62 | 213 | 0.0 | 5.2 | 0.00 | 0.00 | 0.00 | 46 | 1002.1 |
| 20260505234702 | 63 | 185 | 1.7 | 8.7 | 0.00 | 0.00 | 0.00 | 45 | 1002.2 |
| 20260505233629 | 63 | 19 | 2.6 | 8.7 | 0.00 | 0.00 | 0.00 | 46 | 1002.2 |
| 20260505232613 | 63 | 256 | 1.7 | 5.2 | 0.00 | 0.00 | 0.00 | 48 | 1002.2 |
| 20260505231601 | 62 | 261 | 1.7 | 6.1 | 0.00 | 0.00 | 0.00 | 48 | 1002.2 |
| 20260505230530 | 63 | 308 | 1.7 | 6.1 | 0.00 | 0.00 | 0.00 | 48 | 1002.5 |
| 20260505225539 | 62 | 294 | 2.6 | 7.0 | 0.00 | 0.00 | 0.00 | 48 | 1002.6 |
| 20260505224542 | 62 | 291 | 3.5 | 7.0 | 0.00 | 0.00 | 0.00 | 48 | 1002.5 |
| 20260505223528 | 62 | 86 | 0.9 | 4.3 | 0.00 | 0.00 | 0.00 | 48 | 1002.5 |
| 20260505222538 | 63 | 302 | 0.0 | 4.3 | 0.00 | 0.00 | 0.00 | 51 | 1002.7 |
| 20260505214315 | 58 | 246 | 3.5 | 13.0 | 0.00 | 0.00 | 0.00 | 63 | 1003.9 |
| 20260505213325 | 60 | 265 | 3.5 | 13.0 | 0.00 | 0.00 | 0.00 | 52 | 1003.8 |
| 20260505212332 | 61 | 304 | 1.7 | 7.0 | 0.00 | 0.00 | 0.00 | 51 | 1003.7 |
| 20260505211320 | 62 | 131 | 0.9 | 7.8 | 0.00 | 0.00 | 0.00 | 47 | 1003.4 |
| 20260505210319 | 62 | 31 | 1.7 | 8.7 | 0.00 | 0.00 | 0.00 | 47 | 1003.4 |
| 20260505204153 | 62 | 252 | 0.0 | 4.3 | 0.00 | 0.00 | 0.00 | 47 | 1003.3 |
| 20260505203203 | 61 | 55 | 3.5 | 8.7 | 0.00 | 0.00 | 0.00 | 49 | 1003.7 |
| 20260505202131 | 61 | 282 | 3.5 | 8.7 | 0.00 | 0.00 | 0.00 | 49 | 1003.6 |
| 20260505201135 | 61 | 337 | 3.5 | 7.0 | 0.00 | 0.00 | 0.00 | 49 | 1003.6 |
| 20260505200121 | 60 | 281 | 3.5 | 7.8 | 0.00 | 0.00 | 0.00 | 50 | 1003.6 |
| 20260505195048 | 61 | 9 | 2.6 | 8.7 | 0.00 | 0.00 | 0.00 | 49 | 1003.8 |
| 20260505191755 | 59 | 313 | 1.7 | 7.0 | 0.00 | 0.00 | 0.00 | 55 | 1004.1 |
| 20260505190740 | 58 | 266 | 1.7 | 12.2 | 0.00 | 0.00 | 0.00 | 58 | 1004.3 |
| 20260505185759 | 58 | 134 | 4.3 | 12.2 | 0.00 | 0.00 | 0.00 | 59 | 1004.3 |
| 20260505184805 | 58 | 161 | 3.5 | 9.6 | 0.00 | 0.00 | 0.00 | 57 | 1004.3 |
| 20260505183812 | 58 | 156 | 3.5 | 9.6 | 0.00 | 0.00 | 0.00 | 56 | 1004.4 |
| 20260505182837 | 59 | 248 | 1.7 | 5.2 | 0.00 | 0.00 | 0.00 | 52 | 1004.3 |
| 20260505181848 | 59 | 281 | 1.7 | 5.2 | 0.00 | 0.00 | 0.00 | 50 | 1004.2 |
| 20260505180813 | 60 | 298 | 0.9 | 1.7 | 0.00 | 0.00 | 0.00 | 48 | 1004.1 |
| 20260505175811 | 60 | 219 | 0.0 | 6.1 | 0.00 | 0.00 | 0.00 | 48 | 1004.1 |
| 20260505174813 | 59 | 234 | 1.7 | 6.1 | 0.00 | 0.00 | 0.00 | 48 | 1004.1 |
| 20260505173833 | 60 | 273 | 0.9 | 2.6 | 0.00 | 0.00 | 0.00 | 46 | 1004.0 |
| 20260505171719 | 58 | 308 | 0.9 | 6.1 | 0.00 | 0.00 | 0.00 | 49 | 1003.8 |
| 20260505170733 | 58 | 294 | 2.6 | 7.8 | 0.00 | 0.00 | 0.00 | 50 | 1004.1 |
| 20260505165705 | 57 | 33 | 4.3 | 7.8 | 0.00 | 0.00 | 0.00 | 49 | 1004.1 |
| 20260505164648 | 57 | 327 | 5.2 | 9.6 | 0.00 | 0.00 | 0.00 | 50 | 1004.0 |
| 20260505163701 | 56 | 302 | 6.1 | 11.3 | 0.00 | 0.00 | 0.00 | 51 | 1003.8 |
| 20260505162638 | 56 | 327 | 7.0 | 11.3 | 0.00 | 0.00 | 0.00 | 52 | 1004.1 |
| 20260505161608 | 55 | 319 | 6.1 | 10.4 | 0.00 | 0.00 | 0.00 | 57 | 1003.9 |
| 20260505160555 | 54 | 315 | 7.8 | 15.6 | 0.00 | 0.00 | 0.00 | 58 | 1004.1 |
| 20260505152443 | 54 | 291 | 7.0 | 12.2 | 0.00 | 0.00 | 0.00 | 62 | 1004.6 |
| 20260505151424 | 54 | 298 | 7.8 | 10.4 | 0.00 | 0.00 | 0.00 | 63 | 1004.7 |
| 20260505150418 | 54 | 325 | 7.0 | 11.3 | 0.00 | 0.00 | 0.00 | 64 | 1004.6 |
| 20260505140252 | 58 | 324 | 1.7 | 11.3 | 0.00 | 0.00 | 0.00 | 51 | 1004.8 |
| 20260505124001 | 58 | 295 | 0.0 | 2.6 | 0.00 | 0.00 | 0.00 | 42 | 1003.4 |
| 20260505121857 | 58 | 281 | 0.9 | 2.6 | 0.00 | 0.00 | 0.00 | 41 | 1003.5 |
| 20260505115722 | 58 | 303 | 0.0 | 2.6 | 0.00 | 0.00 | 0.00 | 40 | 1003.6 |
| 20260505114733 | 58 | 296 | 0.0 | 3.5 | 0.00 | 0.00 | 0.00 | 41 | 1003.4 |
| 20260505113718 | 59 | 162 | 0.9 | 5.2 | 0.00 | 0.00 | 0.00 | 40 | 1003.4 |
| 20260505112721 | 59 | 261 | 0.9 | 5.2 | 0.00 | 0.00 | 0.00 | 41 | 1003.2 |
| 20260505110534 | 59 | 263 | 1.7 | 5.2 | 0.00 | 0.00 | 0.00 | 39 | 1003.2 |
| 20260505101411 | 59 | 156 | 0.9 | 4.3 | 0.00 | 0.00 | 0.00 | 35 | 1003.9 |
| 20260505100428 | 59 | 185 | 0.0 | 2.6 | 0.00 | 0.00 | 0.00 | 36 | 1003.6 |
| 20260505095431 | 59 | 241 | 0.0 | 2.6 | 0.00 | 0.00 | 0.00 | 36 | 1003.7 |
| 20260505094426 | 58 | 175 | 0.0 | 2.6 | 0.00 | 0.00 | 0.00 | 36 | 1003.5 |
| 20260505093418 | 59 | 242 | 0.0 | 0.0 | 0.00 | 0.00 | 0.00 | 36 | 1003.5 |
| 20260505092401 | 59 | 198 | 0.0 | 0.0 | 0.00 | 0.00 | 0.00 | 37 | 1003.6 |
| 20260505091413 | 59 | 198 | 0.0 | 0.0 | 0.00 | 0.00 | 0.00 | 36 | 1003.8 |
| 20260505090413 | 61 | 295 | 0.0 | 0.0 | 0.00 | 0.00 | 0.00 | 33 | 1003.8 |
| 20260505085429 | 61 | 295 | 0.0 | 0.0 | 0.00 | 0.00 | 0.00 | 33 | 1004.0 |
| 20260505083323 | 62 | 295 | 0.0 | 0.0 | 0.00 | 0.00 | 0.00 | 33 | 1004.2 |
| 20260505082335 | 62 | 295 | 0.0 | 0.0 | 0.00 | 0.00 | 0.00 | 32 | 1004.5 |
| 20260505081334 | 62 | 295 | 0.0 | 0.0 | 0.00 | 0.00 | 0.00 | 32 | 1004.3 |
| 20260505080303 | 63 | 295 | 0.0 | 4.3 | 0.00 | 0.00 | 0.00 | 32 | 1004.6 |
| 20260505074102 | 63 | 261 | 0.0 | 0.0 | 0.00 | 0.00 | 0.00 | 31 | 1004.7 |
| 20260505073112 | 64 | 261 | 0.0 | 0.0 | 0.00 | 0.00 | 0.00 | 31 | 1004.6 |
| 20260505072100 | 64 | 262 | 0.0 | 1.7 | 0.00 | 0.00 | 0.00 | 30 | 1004.5 |
| 20260505071058 | 64 | 263 | 0.0 | 2.6 | 0.00 | 0.00 | 0.00 | 30 | 1004.6 |
| 20260505070110 | 64 | 268 | 0.0 | 1.7 | 0.00 | 0.00 | 0.00 | 30 | 1004.6 |
| 20260505065041 | 65 | 269 | 0.0 | 0.0 | 0.00 | 0.00 | 0.00 | 29 | 1004.3 |
| 20260505064103 | 65 | 273 | 0.0 | 0.9 | 0.00 | 0.00 | 0.00 | 28 | 1004.2 |
| 20260505063037 | 65 | 277 | 0.0 | 0.9 | 0.00 | 0.00 | 0.00 | 28 | 1004.1 |
| 20260505062009 | 65 | 277 | 0.0 | 0.9 | 0.00 | 0.00 | 0.00 | 28 | 1004.0 |
| 20260505060941 | 66 | 277 | 0.0 | 0.0 | 0.00 | 0.00 | 0.00 | 27 | 1004.1 |
| 20260505054829 | 67 | 276 | 0.0 | 3.5 | 0.00 | 0.00 | 0.00 | 25 | 1003.9 |
| 20260505053758 | 67 | 264 | 0.0 | 5.2 | 0.00 | 0.00 | 0.00 | 25 | 1003.9 |
| 20260505052805 | 67 | 267 | 0.0 | 5.2 | 0.00 | 0.00 | 0.00 | 25 | 1003.8 |
| 20260505051757 | 67 | 269 | 0.0 | 0.9 | 0.00 | 0.00 | 0.00 | 24 | 1003.8 |
| 20260505050731 | 68 | 273 | 0.0 | 1.7 | 0.00 | 0.00 | 0.00 | 24 | 1003.6 |
| 20260505041753 | 68 | 304 | 0.0 | 0.0 | 0.00 | 0.00 | 0.00 | 23 | 1003.5 |
| 20260505040726 | 68 | 304 | 0.0 | 0.0 | 0.00 | 0.00 | 0.00 | 24 | 1003.3 |
| 20260505035712 | 68 | 304 | 0.0 | 0.0 | 0.00 | 0.00 | 0.00 | 23 | 1003.4 |
| 20260505034721 | 69 | 304 | 0.0 | 0.0 | 0.00 | 0.00 | 0.00 | 23 | 1003.4 |
| 20260505033658 | 69 | 304 | 0.0 | 0.0 | 0.00 | 0.00 | 0.00 | 23 | 1003.2 |
| 20260505032702 | 70 | 304 | 0.0 | 0.0 | 0.00 | 0.00 | 0.00 | 23 | 1003.0 |
| 20260505031715 | 70 | 304 | 0.0 | 0.0 | 0.00 | 0.00 | 0.00 | 22 | 1002.8 |
| 20260505030709 | 70 | 304 | 0.0 | 0.0 | 0.00 | 0.00 | 0.00 | 21 | 1002.7 |
| 20260505025648 | 71 | 309 | 0.9 | 7.0 | 0.00 | 0.00 | 0.00 | 21 | 1002.4 |
| 20260505024636 | 71 | 302 | 0.0 | 4.3 | 0.00 | 0.00 | 0.00 | 21 | 1002.3 |
| 20260505023602 | 71 | 294 | 0.0 | 0.0 | 0.00 | 0.00 | 0.00 | 21 | 1002.2 |
| 20260505022557 | 72 | 300 | 0.0 | 5.2 | 0.00 | 0.00 | 0.00 | 20 | 1002.2 |
| 20260505020451 | 72 | 309 | 0.0 | 4.3 | 0.00 | 0.00 | 0.00 | 19 | 1002.0 |
| 20260505015446 | 73 | 277 | 0.0 | 5.2 | 0.00 | 0.00 | 0.00 | 19 | 1001.8 |
| 20260505014444 | 73 | 267 | 0.0 | 4.3 | 0.00 | 0.00 | 0.00 | 19 | 1001.9 |
| 20260505013433 | 73 | 292 | 0.0 | 0.0 | 0.00 | 0.00 | 0.00 | 19 | 1001.6 |
| 20260505012437 | 74 | 292 | 0.0 | 4.3 | 0.00 | 0.00 | 0.00 | 18 | 1001.5 |
| 20260505011422 | 74 | 281 | 0.0 | 1.7 | 0.00 | 0.00 | 0.00 | 19 | 1001.4 |
| 20260505010408 | 74 | 306 | 0.0 | 2.6 | 0.00 | 0.00 | 0.00 | 19 | 1001.5 |